Decoded Metar for KAEL (ALBERT LEA in MN, USA) (IATA:AEL) | Meteo·Mobile Aviation Weather
aviador You're here:

KAEL Decoded Metar

ALBERT LEA in MN, USA
Report Time2018-10-17 02:35:00
UTC Time2018-10-17 02:42:57
Flight Rules vfr VFR
Wind310° at 05 kt
W.Decomp.*RWY 35: 3.8 kt HW 3.3 kt LCW
RWY 23: 1.0 kt HW 4.9 kt RCW
W.Rank310° ranks 5
Current wind is below 310° avg. (8.1)
Visibility9999 m
Phenomena:N/A
Clouds:N/A
Expected CloudBase > 3,200 ft AGL from Temp-Dew spread
CeilingNone
Temp07°C (ISA -6)
Dew Point-1°C (57% RH)
AAT3.1°C
QNH1020 hPa
Density Alt443 ft
Elevation1,257 ft
Report Wrong Elevation
Raw Report
KAEL 170235Z AUTO 31005KT 10SM CLR 07/M01 A3013 RMK AO2=

Extra information for KAEL:More info

Metar Taf Metar & Taf Last 4 Metars F.Rules Stats Wind Profile Meteogram Temp Stats Airport Information Weather charts Add Link Nearby VenuesMetar ALERT Operation Metar Decoded Social comments

AIRNAV info for KAEL